sensor_id;sensor_type;location;lat;lon;timestamp;pressure;altitude;pressure_sealevel;temperature;humidity
66945;BME280;53853;51.982;5.928;2023-01-28T00:01:23;102840.06;;;5.25;60.77
66945;BME280;53853;51.982;5.928;2023-01-28T00:03:52;102840.00;;;5.26;60.95
66945;BME280;53853;51.982;5.928;2023-01-28T00:06:25;102850.50;;;5.28;60.80
66945;BME280;53853;51.982;5.928;2023-01-28T00:08:55;102854.88;;;5.29;60.78
66945;BME280;53853;51.982;5.928;2023-01-28T00:11:25;102851.44;;;5.27;61.10
66945;BME280;53853;51.982;5.928;2023-01-28T00:13:56;102847.84;;;5.28;61.45
66945;BME280;53853;51.982;5.928;2023-01-28T00:16:27;102847.78;;;5.30;61.14
66945;BME280;53853;51.982;5.928;2023-01-28T00:18:57;102846.03;;;5.30;60.98
66945;BME280;53853;51.982;5.928;2023-01-28T00:21:30;102848.72;;;5.29;60.94
66945;BME280;53853;51.982;5.928;2023-01-28T00:24:00;102847.94;;;5.26;61.19
66945;BME280;53853;51.982;5.928;2023-01-28T00:26:30;102841.78;;;5.26;61.22
66945;BME280;53853;51.982;5.928;2023-01-28T00:29:00;102840.59;;;5.33;61.10
66945;BME280;53853;51.982;5.928;2023-01-28T00:31:30;102843.91;;;5.38;60.91
66945;BME280;53853;51.982;5.928;2023-01-28T00:34:01;102836.63;;;5.43;60.78
66945;BME280;53853;51.982;5.928;2023-01-28T00:36:35;102846.34;;;5.43;61.29
66945;BME280;53853;51.982;5.928;2023-01-28T00:39:06;102851.75;;;5.40;61.12
66945;BME280;53853;51.982;5.928;2023-01-28T00:41:42;102847.13;;;5.45;61.04
66945;BME280;53853;51.982;5.928;2023-01-28T00:44:12;102852.22;;;5.50;60.81
66945;BME280;53853;51.982;5.928;2023-01-28T00:46:42;102859.31;;;5.49;60.93
66945;BME280;53853;51.982;5.928;2023-01-28T00:49:12;102859.38;;;5.48;61.17
66945;BME280;53853;51.982;5.928;2023-01-28T00:51:45;102849.78;;;5.45;61.30
66945;BME280;53853;51.982;5.928;2023-01-28T00:54:16;102864.78;;;5.44;61.59
66945;BME280;53853;51.982;5.928;2023-01-28T00:56:46;102865.91;;;5.39;62.01
66945;BME280;53853;51.982;5.928;2023-01-28T00:59:16;102865.69;;;5.43;61.65
66945;BME280;53853;51.982;5.928;2023-01-28T01:01:47;102861.56;;;5.38;62.18
66945;BME280;53853;51.982;5.928;2023-01-28T01:04:17;102860.88;;;5.33;62.30
66945;BME280;53853;51.982;5.928;2023-01-28T01:06:56;102866.09;;;5.34;62.01
66945;BME280;53853;51.982;5.928;2023-01-28T01:09:26;102866.16;;;5.33;62.04
66945;BME280;53853;51.982;5.928;2023-01-28T01:11:57;102863.56;;;5.31;62.15
66945;BME280;53853;51.982;5.928;2023-01-28T01:14:27;102873.25;;;5.32;62.52
66945;BME280;53853;51.982;5.928;2023-01-28T01:16:57;102868.81;;;5.33;62.16
66945;BME280;53853;51.982;5.928;2023-01-28T01:19:27;102863.44;;;5.34;62.61
66945;BME280;53853;51.982;5.928;2023-01-28T01:22:00;102864.34;;;5.35;62.62
66945;BME280;53853;51.982;5.928;2023-01-28T01:24:30;102863.44;;;5.34;62.36
66945;BME280;53853;51.982;5.928;2023-01-28T01:27:00;102870.41;;;5.37;62.02
66945;BME280;53853;51.982;5.928;2023-01-28T01:29:31;102870.72;;;5.29;62.09
66945;BME280;53853;51.982;5.928;2023-01-28T01:32:02;102875.16;;;5.29;61.87
66945;BME280;53853;51.982;5.928;2023-01-28T01:34:32;102865.56;;;5.26;61.70
66945;BME280;53853;51.982;5.928;2023-01-28T01:37:04;102862.28;;;5.21;61.17
66945;BME280;53853;51.982;5.928;2023-01-28T01:39:36;102862.41;;;5.18;61.43
66945;BME280;53853;51.982;5.928;2023-01-28T01:42:09;102858.97;;;5.16;61.49
66945;BME280;53853;51.982;5.928;2023-01-28T01:44:56;102857.16;;;5.16;61.25
66945;BME280;53853;51.982;5.928;2023-01-28T01:47:31;102857.38;;;5.12;61.31
66945;BME280;53853;51.982;5.928;2023-01-28T01:50:06;102862.91;;;5.05;62.11
66945;BME280;53853;51.982;5.928;2023-01-28T01:52:42;102859.34;;;5.06;62.51
66945;BME280;53853;51.982;5.928;2023-01-28T01:55:17;102859.16;;;5.11;61.56
66945;BME280;53853;51.982;5.928;2023-01-28T01:57:49;102860.06;;;5.10;61.52
66945;BME280;53853;51.982;5.928;2023-01-28T02:00:20;102869.78;;;5.10;61.53
66945;BME280;53853;51.982;5.928;2023-01-28T02:02:51;102871.38;;;5.14;61.15
66945;BME280;53853;51.982;5.928;2023-01-28T02:05:22;102868.78;;;5.12;60.60
66945;BME280;53853;51.982;5.928;2023-01-28T02:07:57;102862.72;;;5.10;60.59
66945;BME280;53853;51.982;5.928;2023-01-28T02:10:48;102867.22;;;5.08;60.20
66945;BME280;53853;51.982;5.928;2023-01-28T02:13:23;102869.00;;;5.07;60.26
66945;BME280;53853;51.982;5.928;2023-01-28T02:15:58;102864.63;;;5.06;60.50
66945;BME280;53853;51.982;5.928;2023-01-28T02:18:30;102872.56;;;5.06;60.63
66945;BME280;53853;51.982;5.928;2023-01-28T02:21:30;102871.50;;;5.11;60.44
66945;BME280;53853;51.982;5.928;2023-01-28T02:24:24;102871.31;;;5.15;59.95
66945;BME280;53853;51.982;5.928;2023-01-28T02:27:17;102864.25;;;5.16;59.88
66945;BME280;53853;51.982;5.928;2023-01-28T02:29:57;102871.38;;;5.14;59.66
66945;BME280;53853;51.982;5.928;2023-01-28T02:32:32;102866.38;;;5.07;59.90
66945;BME280;53853;51.982;5.928;2023-01-28T02:35:11;102879.75;;;5.03;60.12
66945;BME280;53853;51.982;5.928;2023-01-28T02:37:46;102881.66;;;4.99;60.41
66945;BME280;53853;51.982;5.928;2023-01-28T02:40:21;102876.75;;;4.90;60.84
66945;BME280;53853;51.982;5.928;2023-01-28T02:42:53;102875.94;;;4.88;61.13
66945;BME280;53853;51.982;5.928;2023-01-28T02:45:31;102885.47;;;4.92;60.99
66945;BME280;53853;51.982;5.928;2023-01-28T02:48:15;102876.06;;;4.85;61.38
66945;BME280;53853;51.982;5.928;2023-01-28T02:50:49;102877.00;;;4.84;61.42
66945;BME280;53853;51.982;5.928;2023-01-28T02:53:30;102873.56;;;4.82;61.50
66945;BME280;53853;51.982;5.928;2023-01-28T02:56:19;102871.91;;;4.79;61.80
66945;BME280;53853;51.982;5.928;2023-01-28T02:59:00;102873.13;;;4.70;61.89
66945;BME280;53853;51.982;5.928;2023-01-28T03:02:02;102876.84;;;4.66;62.06
66945;BME280;53853;51.982;5.928;2023-01-28T03:04:36;102876.78;;;4.68;62.02
66945;BME280;53853;51.982;5.928;2023-01-28T03:07:08;102876.91;;;4.65;62.19
66945;BME280;53853;51.982;5.928;2023-01-28T03:09:39;102880.50;;;4.62;61.71
66945;BME280;53853;51.982;5.928;2023-01-28T03:12:13;102886.03;;;4.56;61.80
66945;BME280;53853;51.982;5.928;2023-01-28T03:14:59;102882.72;;;4.51;61.91
66945;BME280;53853;51.982;5.928;2023-01-28T03:17:48;102880.06;;;4.51;61.63
66945;BME280;53853;51.982;5.928;2023-01-28T03:20:38;102872.16;;;4.51;61.80
66945;BME280;53853;51.982;5.928;2023-01-28T03:23:29;102880.91;;;4.51;61.83
66945;BME280;53853;51.982;5.928;2023-01-28T03:26:14;102881.88;;;4.50;62.31
66945;BME280;53853;51.982;5.928;2023-01-28T03:29:02;102880.06;;;4.51;62.27
66945;BME280;53853;51.982;5.928;2023-01-28T03:31:46;102871.22;;;4.52;62.27
66945;BME280;53853;51.982;5.928;2023-01-28T03:34:31;102876.44;;;4.53;61.52
66945;BME280;53853;51.982;5.928;2023-01-28T03:37:14;102871.16;;;4.53;61.67
66945;BME280;53853;51.982;5.928;2023-01-28T03:39:49;102874.78;;;4.51;62.01
66945;BME280;53853;51.982;5.928;2023-01-28T03:42:19;102872.94;;;4.53;61.96
66945;BME280;53853;51.982;5.928;2023-01-28T03:45:03;102866.88;;;4.51;62.37
66945;BME280;53853;51.982;5.928;2023-01-28T03:47:34;102875.47;;;4.56;62.25
66945;BME280;53853;51.982;5.928;2023-01-28T03:50:10;102879.78;;;4.59;61.95
66945;BME280;53853;51.982;5.928;2023-01-28T03:52:50;102891.38;;;4.54;62.28
66945;BME280;53853;51.982;5.928;2023-01-28T03:55:29;102892.09;;;4.58;62.09
66945;BME280;53853;51.982;5.928;2023-01-28T03:57:59;102894.00;;;4.54;62.21
66945;BME280;53853;51.982;5.928;2023-01-28T04:00:29;102894.72;;;4.58;61.81
66945;BME280;53853;51.982;5.928;2023-01-28T04:02:59;102887.53;;;4.63;61.63
66945;BME280;53853;51.982;5.928;2023-01-28T04:05:32;102898.13;;;4.62;61.65
66945;BME280;53853;51.982;5.928;2023-01-28T04:08:02;102893.81;;;4.59;61.78
66945;BME280;53853;51.982;5.928;2023-01-28T04:10:47;102888.59;;;4.58;61.62
66945;BME280;53853;51.982;5.928;2023-01-28T04:13:29;102894.69;;;4.60;60.89
66945;BME280;53853;51.982;5.928;2023-01-28T04:16:00;102894.69;;;4.60;60.64
66945;BME280;53853;51.982;5.928;2023-01-28T04:18:35;102891.31;;;4.56;60.21
66945;BME280;53853;51.982;5.928;2023-01-28T04:21:08;102899.47;;;4.50;60.20
66945;BME280;53853;51.982;5.928;2023-01-28T04:23:38;102888.09;;;4.48;60.60
66945;BME280;53853;51.982;5.928;2023-01-28T04:26:09;102883.63;;;4.50;60.90
66945;BME280;53853;51.982;5.928;2023-01-28T04:28:39;102885.22;;;4.54;60.83
66945;BME280;53853;51.982;5.928;2023-01-28T04:31:09;102882.59;;;4.54;60.32
66945;BME280;53853;51.982;5.928;2023-01-28T04:33:42;102889.56;;;4.55;60.60
66945;BME280;53853;51.982;5.928;2023-01-28T04:36:43;102900.19;;;4.53;61.25
66945;BME280;53853;51.982;5.928;2023-01-28T04:39:43;102900.41;;;4.49;61.17
66945;BME280;53853;51.982;5.928;2023-01-28T04:42:39;102903.28;;;4.43;60.84
66945;BME280;53853;51.982;5.928;2023-01-28T04:45:29;102898.91;;;4.42;60.34
66945;BME280;53853;51.982;5.928;2023-01-28T04:48:10;102897.94;;;4.44;60.09
66945;BME280;53853;51.982;5.928;2023-01-28T04:51:06;102904.25;;;4.40;59.50
66945;BME280;53853;51.982;5.928;2023-01-28T04:53:54;102903.38;;;4.40;59.41
66945;BME280;53853;51.982;5.928;2023-01-28T04:56:26;102905.19;;;4.38;59.55
66945;BME280;53853;51.982;5.928;2023-01-28T04:58:56;102919.22;;;4.40;59.61
66945;BME280;53853;51.982;5.928;2023-01-28T05:01:28;102921.94;;;4.38;59.74
66945;BME280;53853;51.982;5.928;2023-01-28T05:03:58;102918.41;;;4.38;59.76
66945;BME280;53853;51.982;5.928;2023-01-28T05:06:32;102922.09;;;4.33;60.20
66945;BME280;53853;51.982;5.928;2023-01-28T05:09:10;102917.56;;;4.37;60.33
66945;BME280;53853;51.982;5.928;2023-01-28T05:11:40;102914.00;;;4.38;60.08
66945;BME280;53853;51.982;5.928;2023-01-28T05:14:10;102914.84;;;4.39;60.25
66945;BME280;53853;51.982;5.928;2023-01-28T05:16:45;102906.03;;;4.40;60.15
66945;BME280;53853;51.982;5.928;2023-01-28T05:19:15;102916.81;;;4.33;60.24
66945;BME280;53853;51.982;5.928;2023-01-28T05:21:46;102913.38;;;4.31;59.37
66945;BME280;53853;51.982;5.928;2023-01-28T05:24:34;102911.53;;;4.33;59.60
66945;BME280;53853;51.982;5.928;2023-01-28T05:27:04;102913.38;;;4.31;59.32
66945;BME280;53853;51.982;5.928;2023-01-28T05:29:34;102904.88;;;4.23;59.08
66945;BME280;53853;51.982;5.928;2023-01-28T05:32:04;102896.28;;;4.18;58.60
66945;BME280;53853;51.982;5.928;2023-01-28T05:34:34;102897.28;;;4.14;58.60
66945;BME280;53853;51.982;5.928;2023-01-28T05:37:10;102905.22;;;4.14;58.90
66945;BME280;53853;51.982;5.928;2023-01-28T05:39:42;102901.53;;;4.18;58.08
66945;BME280;53853;51.982;5.928;2023-01-28T05:42:12;102904.31;;;4.15;58.44
66945;BME280;53853;51.982;5.928;2023-01-28T05:44:46;102909.47;;;4.18;58.28
66945;BME280;53853;51.982;5.928;2023-01-28T05:47:23;102905.22;;;4.14;58.31
66945;BME280;53853;51.982;5.928;2023-01-28T05:50:04;102902.00;;;4.06;58.00
66945;BME280;53853;51.982;5.928;2023-01-28T05:53:09;102901.19;;;4.04;58.46
66945;BME280;53853;51.982;5.928;2023-01-28T05:55:47;102905.56;;;4.05;58.72
66945;BME280;53853;51.982;5.928;2023-01-28T05:58:18;102908.03;;;4.09;58.62
66945;BME280;53853;51.982;5.928;2023-01-28T06:00:48;102912.31;;;4.12;58.64
66945;BME280;53853;51.982;5.928;2023-01-28T06:03:22;102910.69;;;4.09;58.76
66945;BME280;53853;51.982;5.928;2023-01-28T06:05:52;102903.63;;;4.10;58.92
66945;BME280;53853;51.982;5.928;2023-01-28T06:08:22;102906.31;;;4.08;58.98
66945;BME280;53853;51.982;5.928;2023-01-28T06:10:55;102908.91;;;4.10;58.75
66945;BME280;53853;51.982;5.928;2023-01-28T06:13:25;102908.28;;;4.03;58.18
66945;BME280;53853;51.982;5.928;2023-01-28T06:16:23;102907.50;;;3.99;57.93
66945;BME280;53853;51.982;5.928;2023-01-28T06:19:20;102912.09;;;3.94;57.63
66945;BME280;53853;51.982;5.928;2023-01-28T06:21:50;102915.72;;;3.92;57.90
66945;BME280;53853;51.982;5.928;2023-01-28T06:24:20;102915.88;;;3.87;58.05
66945;BME280;53853;51.982;5.928;2023-01-28T06:26:53;102914.09;;;3.88;58.02
66945;BME280;53853;51.982;5.928;2023-01-28T06:29:23;102914.94;;;3.88;57.97
66945;BME280;53853;51.982;5.928;2023-01-28T06:31:53;102912.09;;;3.94;57.51
66945;BME280;53853;51.982;5.928;2023-01-28T06:34:22;102912.13;;;3.93;57.42
66945;BME280;53853;51.982;5.928;2023-01-28T06:36:52;102905.31;;;3.87;57.71
66945;BME280;53853;51.982;5.928;2023-01-28T06:39:22;102909.66;;;3.88;57.87
66945;BME280;53853;51.982;5.928;2023-01-28T06:42:00;102906.22;;;3.86;57.91
66945;BME280;53853;51.982;5.928;2023-01-28T06:44:29;102913.28;;;3.86;58.04
66945;BME280;53853;51.982;5.928;2023-01-28T06:46:59;102923.84;;;3.86;57.64
66945;BME280;53853;51.982;5.928;2023-01-28T06:49:29;102914.19;;;3.85;57.49
66945;BME280;53853;51.982;5.928;2023-01-28T06:51:59;102915.09;;;3.84;57.96
66945;BME280;53853;51.982;5.928;2023-01-28T06:54:30;102919.63;;;3.80;57.96
66945;BME280;53853;51.982;5.928;2023-01-28T06:57:02;102922.47;;;3.74;58.51
66945;BME280;53853;51.982;5.928;2023-01-28T06:59:32;102923.56;;;3.68;58.94
66945;BME280;53853;51.982;5.928;2023-01-28T07:02:02;102920.88;;;3.70;59.41
66945;BME280;53853;51.982;5.928;2023-01-28T07:04:32;102919.69;;;3.78;58.99
66945;BME280;53853;51.982;5.928;2023-01-28T07:07:03;102932.97;;;3.75;59.20
66945;BME280;53853;51.982;5.928;2023-01-28T07:09:33;102940.03;;;3.75;59.28
66945;BME280;53853;51.982;5.928;2023-01-28T07:12:05;102948.84;;;3.74;58.52
66945;BME280;53853;51.982;5.928;2023-01-28T07:14:35;102950.59;;;3.75;58.50
66945;BME280;53853;51.982;5.928;2023-01-28T07:17:05;102954.97;;;3.76;58.43
66945;BME280;53853;51.982;5.928;2023-01-28T07:19:35;102952.31;;;3.76;58.52
66945;BME280;53853;51.982;5.928;2023-01-28T07:22:05;102960.38;;;3.71;58.73
66945;BME280;53853;51.982;5.928;2023-01-28T07:24:35;102958.56;;;3.73;58.97
66945;BME280;53853;51.982;5.928;2023-01-28T07:27:07;102956.72;;;3.75;59.03
66945;BME280;53853;51.982;5.928;2023-01-28T07:29:37;102956.66;;;3.77;59.01
66945;BME280;53853;51.982;5.928;2023-01-28T07:32:07;102965.44;;;3.77;58.91
66945;BME280;53853;51.982;5.928;2023-01-28T07:34:37;102966.31;;;3.78;58.64
66945;BME280;53853;51.982;5.928;2023-01-28T07:37:09;102969.00;;;3.76;58.61
66945;BME280;53853;51.982;5.928;2023-01-28T07:39:39;102968.16;;;3.76;58.55
66945;BME280;53853;51.982;5.928;2023-01-28T07:42:11;102970.78;;;3.76;58.37
66945;BME280;53853;51.982;5.928;2023-01-28T07:44:46;102971.59;;;3.78;57.83
66945;BME280;53853;51.982;5.928;2023-01-28T07:47:17;102962.00;;;3.75;58.18
66945;BME280;53853;51.982;5.928;2023-01-28T07:49:46;102961.03;;;3.78;58.04
66945;BME280;53853;51.982;5.928;2023-01-28T07:52:16;102976.69;;;3.83;58.03
66945;BME280;53853;51.982;5.928;2023-01-28T07:54:46;102979.19;;;3.87;58.35
66945;BME280;53853;51.982;5.928;2023-01-28T07:57:19;102981.00;;;3.85;58.96
66945;BME280;53853;51.982;5.928;2023-01-28T07:59:49;102981.00;;;3.85;58.90
66945;BME280;53853;51.982;5.928;2023-01-28T08:02:19;102987.19;;;3.84;58.64
66945;BME280;53853;51.982;5.928;2023-01-28T08:04:49;102988.84;;;3.87;58.96
66945;BME280;53853;51.982;5.928;2023-01-28T08:07:19;102996.81;;;3.85;58.80
66945;BME280;53853;51.982;5.928;2023-01-28T08:09:49;102999.34;;;3.88;58.68
66945;BME280;53853;51.982;5.928;2023-01-28T08:12:22;102999.94;;;3.96;58.67
66945;BME280;53853;51.982;5.928;2023-01-28T08:14:52;103001.56;;;4.01;58.26
66945;BME280;53853;51.982;5.928;2023-01-28T08:17:22;103008.56;;;4.02;58.50
66945;BME280;53853;51.982;5.928;2023-01-28T08:19:52;103005.00;;;4.03;58.30
66945;BME280;53853;51.982;5.928;2023-01-28T08:22:24;102999.63;;;4.06;58.35
66945;BME280;53853;51.982;5.928;2023-01-28T08:24:54;103006.56;;;4.08;58.29
66945;BME280;53853;51.982;5.928;2023-01-28T08:27:27;103002.03;;;4.12;58.57
66945;BME280;53853;51.982;5.928;2023-01-28T08:29:56;103008.06;;;4.15;58.67
66945;BME280;53853;51.982;5.928;2023-01-28T08:32:27;103007.97;;;4.18;58.67
66945;BME280;53853;51.982;5.928;2023-01-28T08:34:58;103013.06;;;4.23;58.74
66945;BME280;53853;51.982;5.928;2023-01-28T08:37:28;103014.81;;;4.24;58.06
66945;BME280;53853;51.982;5.928;2023-01-28T08:39:58;103016.53;;;4.25;57.99
66945;BME280;53853;51.982;5.928;2023-01-28T08:42:30;103015.50;;;4.29;57.93
66945;BME280;53853;51.982;5.928;2023-01-28T08:45:00;103030.47;;;4.29;57.46
66945;BME280;53853;51.982;5.928;2023-01-28T08:47:30;103033.22;;;4.26;57.63
66945;BME280;53853;51.982;5.928;2023-01-28T08:50:01;103036.72;;;4.26;57.89
66945;BME280;53853;51.982;5.928;2023-01-28T08:52:31;103026.13;;;4.28;57.64
66945;BME280;53853;51.982;5.928;2023-01-28T08:55:00;103019.19;;;4.25;57.69
66945;BME280;53853;51.982;5.928;2023-01-28T08:57:33;103029.63;;;4.28;57.58
66945;BME280;53853;51.982;5.928;2023-01-28T09:00:04;103042.00;;;4.26;57.48
66945;BME280;53853;51.982;5.928;2023-01-28T09:02:36;103042.06;;;4.25;57.30
66945;BME280;53853;51.982;5.928;2023-01-28T09:05:07;103024.56;;;4.22;57.40
66945;BME280;53853;51.982;5.928;2023-01-28T09:07:38;103031.56;;;4.23;57.58
66945;BME280;53853;51.982;5.928;2023-01-28T09:10:10;103034.25;;;4.22;58.15
66945;BME280;53853;51.982;5.928;2023-01-28T09:12:43;103024.63;;;4.21;58.62
66945;BME280;53853;51.982;5.928;2023-01-28T09:15:13;103040.28;;;4.25;58.36
66945;BME280;53853;51.982;5.928;2023-01-28T09:17:43;103034.84;;;4.30;57.97
66945;BME280;53853;51.982;5.928;2023-01-28T09:20:12;103044.31;;;4.35;58.04
66945;BME280;53853;51.982;5.928;2023-01-28T09:22:42;103064.44;;;4.40;57.69
66945;BME280;53853;51.982;5.928;2023-01-28T09:25:12;103058.00;;;4.47;57.36
66945;BME280;53853;51.982;5.928;2023-01-28T09:27:45;103058.00;;;4.47;57.27
66945;BME280;53853;51.982;5.928;2023-01-28T09:30:15;103063.28;;;4.47;57.22
66945;BME280;53853;51.982;5.928;2023-01-28T09:32:49;103068.44;;;4.50;57.18
66945;BME280;53853;51.982;5.928;2023-01-28T09:35:20;103078.94;;;4.51;57.20
66945;BME280;53853;51.982;5.928;2023-01-28T09:37:50;103061.31;;;4.52;57.62
66945;BME280;53853;51.982;5.928;2023-01-28T09:40:33;103069.13;;;4.55;57.50
66945;BME280;53853;51.982;5.928;2023-01-28T09:43:27;103064.91;;;4.51;57.41
66945;BME280;53853;51.982;5.928;2023-01-28T09:46:03;103070.22;;;4.49;57.66
66945;BME280;53853;51.982;5.928;2023-01-28T09:48:37;103077.16;;;4.52;57.28
66945;BME280;53853;51.982;5.928;2023-01-28T09:51:13;103068.16;;;4.58;57.57
66945;BME280;53853;51.982;5.928;2023-01-28T09:53:48;103077.56;;;4.66;57.50
66945;BME280;53853;51.982;5.928;2023-01-28T09:56:25;103084.44;;;4.70;57.11
66945;BME280;53853;51.982;5.928;2023-01-28T09:59:07;103085.22;;;4.72;56.80
66945;BME280;53853;51.982;5.928;2023-01-28T10:01:42;103090.69;;;4.68;56.73
66945;BME280;53853;51.982;5.928;2023-01-28T10:04:24;103096.84;;;4.68;56.79
66945;BME280;53853;51.982;5.928;2023-01-28T10:07:08;103081.84;;;4.69;57.00
66945;BME280;53853;51.982;5.928;2023-01-28T10:09:49;103077.97;;;4.79;56.67
66945;BME280;53853;51.982;5.928;2023-01-28T10:12:33;103075.03;;;4.87;56.82
66945;BME280;53853;51.982;5.928;2023-01-28T10:18:14;103087.94;;;4.95;56.98
66945;BME280;53853;51.982;5.928;2023-01-28T10:20:48;103075.38;;;5.01;56.84
66945;BME280;53853;51.982;5.928;2023-01-28T10:23:21;103073.28;;;5.10;56.69
66945;BME280;53853;51.982;5.928;2023-01-28T10:25:55;103073.84;;;5.18;55.86
66945;BME280;53853;51.982;5.928;2023-01-28T10:28:28;103067.38;;;5.26;55.54
66945;BME280;53853;51.982;5.928;2023-01-28T10:30:58;103082.34;;;5.26;55.30
66945;BME280;53853;51.982;5.928;2023-01-28T10:33:36;103079.91;;;5.43;55.50
66945;BME280;53853;51.982;5.928;2023-01-28T10:36:07;103077.19;;;5.45;55.36
66945;BME280;53853;51.982;5.928;2023-01-28T10:38:38;103074.84;;;5.37;55.58
66945;BME280;53853;51.982;5.928;2023-01-28T10:41:11;103060.72;;;5.38;55.77
66945;BME280;53853;51.982;5.928;2023-01-28T10:43:46;103066.56;;;5.47;55.49
66945;BME280;53853;51.982;5.928;2023-01-28T10:46:20;103058.38;;;5.53;55.06
66945;BME280;53853;51.982;5.928;2023-01-28T10:48:59;103053.44;;;5.66;54.90
66945;BME280;53853;51.982;5.928;2023-01-28T10:51:32;103065.44;;;5.74;54.84
66945;BME280;53853;51.982;5.928;2023-01-28T10:54:03;103045.91;;;5.77;54.88
66945;BME280;53853;51.982;5.928;2023-01-28T10:56:47;103051.75;;;5.85;54.57
66945;BME280;53853;51.982;5.928;2023-01-28T10:59:24;103046.50;;;5.84;54.78
66945;BME280;53853;51.982;5.928;2023-01-28T11:01:56;103037.59;;;5.86;54.66
66945;BME280;53853;51.982;5.928;2023-01-28T11:04:32;103026.69;;;5.94;54.53
66945;BME280;53853;51.982;5.928;2023-01-28T11:07:03;103019.53;;;5.96;54.69
66945;BME280;53853;51.982;5.928;2023-01-28T11:09:35;103026.34;;;6.03;54.62
66945;BME280;53853;51.982;5.928;2023-01-28T11:12:13;103033.88;;;6.12;54.55
66945;BME280;53853;51.982;5.928;2023-01-28T11:14:50;103013.47;;;6.14;54.00
66945;BME280;53853;51.982;5.928;2023-01-28T11:17:22;103019.69;;;6.13;53.41
66945;BME280;53853;51.982;5.928;2023-01-28T11:19:57;103021.38;;;6.16;53.88
66945;BME280;53853;51.982;5.928;2023-01-28T11:22:32;103013.22;;;6.21;53.95
66945;BME280;53853;51.982;5.928;2023-01-28T11:25:06;103006.19;;;6.20;54.20
66945;BME280;53853;51.982;5.928;2023-01-28T11:27:46;102994.88;;;6.16;54.14
66945;BME280;53853;51.982;5.928;2023-01-28T11:30:22;102974.09;;;6.07;54.48
66945;BME280;53853;51.982;5.928;2023-01-28T11:33:04;102954.22;;;5.98;54.27
66945;BME280;53853;51.982;5.928;2023-01-28T11:35:39;102952.50;;;5.97;54.46
66945;BME280;53853;51.982;5.928;2023-01-28T11:38:17;102944.47;;;5.98;54.88
66945;BME280;53853;51.982;5.928;2023-01-28T11:40:51;102933.16;;;5.95;55.24
66945;BME280;53853;51.982;5.928;2023-01-28T11:43:22;102939.13;;;6.00;55.11
66945;BME280;53853;51.982;5.928;2023-01-28T11:45:59;102941.84;;;5.98;55.16
66945;BME280;53853;51.982;5.928;2023-01-28T11:48:40;102928.31;;;5.84;55.35
66945;BME280;53853;51.982;5.928;2023-01-28T11:51:31;102929.16;;;5.85;55.57
66945;BME280;53853;51.982;5.928;2023-01-28T11:54:32;102934.34;;;5.67;55.50
66945;BME280;53853;51.982;5.928;2023-01-28T11:57:20;102944.06;;;5.67;56.20
66945;BME280;53853;51.982;5.928;2023-01-28T12:00:03;102936.19;;;5.65;56.61
66945;BME280;53853;51.982;5.928;2023-01-28T12:02:48;102949.69;;;5.59;56.56
66945;BME280;53853;51.982;5.928;2023-01-28T12:05:30;102946.25;;;5.57;56.11
66945;BME280;53853;51.982;5.928;2023-01-28T12:08:09;102947.81;;;5.61;56.29
66945;BME280;53853;51.982;5.928;2023-01-28T12:10:47;102950.66;;;5.77;56.26
66945;BME280;53853;51.982;5.928;2023-01-28T12:13:30;102948.41;;;5.88;56.05
66945;BME280;53853;51.982;5.928;2023-01-28T12:16:21;102963.72;;;6.02;55.94
66945;BME280;53853;51.982;5.928;2023-01-28T12:21:52;102958.94;;;6.10;54.40
66945;BME280;53853;51.982;5.928;2023-01-28T12:24:41;102956.78;;;6.20;54.27
66945;BME280;53853;51.982;5.928;2023-01-28T12:27:23;102952.31;;;6.21;53.75
66945;BME280;53853;51.982;5.928;2023-01-28T12:29:59;102960.66;;;6.11;54.11
66945;BME280;53853;51.982;5.928;2023-01-28T12:32:45;102957.31;;;6.08;54.77
66945;BME280;53853;51.982;5.928;2023-01-28T12:35:28;102946.97;;;6.22;54.70
66945;BME280;53853;51.982;5.928;2023-01-28T12:38:08;102939.72;;;6.26;54.49
66945;BME280;53853;51.982;5.928;2023-01-28T12:40:56;102955.13;;;6.37;54.99
66945;BME280;53853;51.982;5.928;2023-01-28T12:43:44;102946.63;;;6.49;54.25
66945;BME280;53853;51.982;5.928;2023-01-28T12:46:30;102956.88;;;6.57;54.30
66945;BME280;53853;51.982;5.928;2023-01-28T12:49:06;102961.28;;;6.56;54.18
66945;BME280;53853;51.982;5.928;2023-01-28T12:51:56;102969.88;;;6.61;53.91
66945;BME280;53853;51.982;5.928;2023-01-28T12:54:33;102960.16;;;6.62;54.00
66945;BME280;53853;51.982;5.928;2023-01-28T12:57:09;102955.84;;;6.78;53.89
66945;BME280;53853;51.982;5.928;2023-01-28T12:59:45;102946.81;;;6.82;54.24
66945;BME280;53853;51.982;5.928;2023-01-28T13:02:24;102948.38;;;6.86;54.45
66945;BME280;53853;51.982;5.928;2023-01-28T13:05:01;102947.47;;;6.87;54.14
66945;BME280;53853;51.982;5.928;2023-01-28T13:07:36;102928.34;;;6.81;53.83
66945;BME280;53853;51.982;5.928;2023-01-28T13:10:16;102932.34;;;6.89;53.36
66945;BME280;53853;51.982;5.928;2023-01-28T13:12:50;102935.78;;;6.92;53.85
66945;BME280;53853;51.982;5.928;2023-01-28T13:15:20;102932.88;;;6.96;53.84
66945;BME280;53853;51.982;5.928;2023-01-28T13:17:55;102933.28;;;6.88;53.85
66945;BME280;53853;51.982;5.928;2023-01-28T13:20:35;102924.59;;;6.85;53.65
66945;BME280;53853;51.982;5.928;2023-01-28T13:23:20;102921.19;;;6.83;54.01
66945;BME280;53853;51.982;5.928;2023-01-28T13:25:52;102908.16;;;6.78;53.68
66945;BME280;53853;51.982;5.928;2023-01-28T13:28:28;102901.03;;;6.79;53.22
66945;BME280;53853;51.982;5.928;2023-01-28T13:31:03;102882.97;;;6.69;53.78
66945;BME280;53853;51.982;5.928;2023-01-28T13:33:35;102882.81;;;6.73;54.05
66945;BME280;53853;51.982;5.928;2023-01-28T13:36:17;102870.56;;;6.70;53.57
66945;BME280;53853;51.982;5.928;2023-01-28T13:39:00;102861.50;;;6.57;53.79
66945;BME280;53853;51.982;5.928;2023-01-28T13:41:38;102853.19;;;6.45;54.17
66945;BME280;53853;51.982;5.928;2023-01-28T13:44:29;102852.47;;;6.42;54.52
66945;BME280;53853;51.982;5.928;2023-01-28T13:47:13;102857.94;;;6.39;54.83
66945;BME280;53853;51.982;5.928;2023-01-28T13:49:46;102849.91;;;6.40;54.91